createdAt,value
2019-02-10T00:00:57.701Z,1002.65
2019-02-10T00:01:57.667Z,1002.65
2019-02-10T00:02:57.660Z,1002.66
2019-02-10T00:03:57.647Z,1002.74
2019-02-10T00:04:57.638Z,1002.71
2019-02-10T00:05:57.627Z,1002.70
2019-02-10T00:06:57.626Z,1002.72
2019-02-10T00:07:57.606Z,1002.74
2019-02-10T00:08:57.597Z,1002.71
2019-02-10T00:09:57.580Z,1002.71
2019-02-10T00:10:57.568Z,1002.69
2019-02-10T00:11:57.569Z,1002.70
2019-02-10T00:12:57.554Z,1002.71
2019-02-10T00:13:57.540Z,1002.70
2019-02-10T00:14:57.537Z,1002.68
2019-02-10T00:15:57.515Z,1002.70
2019-02-10T00:16:57.503Z,1002.73
2019-02-10T00:17:57.639Z,1002.73
2019-02-10T00:18:57.485Z,1002.75
2019-02-10T00:19:57.470Z,1002.74
2019-02-10T00:20:57.518Z,1002.78
2019-02-10T00:21:57.457Z,1002.76
2019-02-10T00:22:57.443Z,1002.77
2019-02-10T00:23:57.466Z,1002.76
2019-02-10T00:24:57.416Z,1002.74
2019-02-10T00:25:57.407Z,1002.78
2019-02-10T00:26:57.400Z,1002.78
2019-02-10T00:27:57.392Z,1002.76
2019-02-10T00:28:57.372Z,1002.73
2019-02-10T00:29:57.379Z,1002.78
2019-02-10T00:30:57.351Z,1002.78
2019-02-10T00:31:57.351Z,1002.78
2019-02-10T00:32:57.336Z,1002.78
2019-02-10T00:33:57.363Z,1002.78
2019-02-10T00:34:57.311Z,1002.82
2019-02-10T00:35:57.297Z,1002.81
2019-02-10T00:36:57.293Z,1002.82
2019-02-10T00:37:57.284Z,1002.81
2019-02-10T00:38:57.270Z,1002.85
2019-02-10T00:39:57.272Z,1002.82
2019-02-10T00:40:57.244Z,1002.81
2019-02-10T00:41:57.237Z,1002.78
2019-02-10T00:42:57.267Z,1002.76
2019-02-10T00:43:57.232Z,1002.73
2019-02-10T00:44:57.208Z,1002.84
2019-02-10T00:45:57.196Z,1002.79
2019-02-10T00:46:57.179Z,1002.79
2019-02-10T00:47:57.169Z,1002.77
2019-02-10T00:48:57.164Z,1002.78
2019-02-10T00:49:57.183Z,1002.74
2019-02-10T00:50:57.146Z,1002.75
2019-02-10T00:51:57.134Z,1002.75
2019-02-10T00:52:57.115Z,1002.69
2019-02-10T00:53:57.105Z,1002.70
2019-02-10T00:54:57.098Z,1002.70
2019-02-10T00:55:57.092Z,1002.83
2019-02-10T00:56:57.078Z,1002.75
2019-02-10T00:57:57.068Z,1002.72
2019-02-10T00:58:57.056Z,1002.73
2019-02-10T00:59:57.056Z,1002.76
2019-02-10T01:00:57.056Z,1002.74
2019-02-10T01:01:57.019Z,1002.78
2019-02-10T01:02:57.008Z,1002.78
2019-02-10T01:03:56.997Z,1002.77
2019-02-10T01:04:56.997Z,1002.71
2019-02-10T01:05:56.996Z,1002.72
2019-02-10T01:06:56.971Z,1002.71
2019-02-10T01:07:56.960Z,1002.67
2019-02-10T01:08:56.964Z,1002.70
2019-02-10T01:09:56.939Z,1002.71
2019-02-10T01:10:56.938Z,1002.63
2019-02-10T01:11:56.918Z,1002.67
2019-02-10T01:12:56.911Z,1002.65
2019-02-10T01:13:56.893Z,1002.64
2019-02-10T01:14:56.885Z,1002.69
2019-02-10T01:15:56.870Z,1002.64
2019-02-10T01:16:56.890Z,1002.61
2019-02-10T01:17:56.848Z,1002.57
2019-02-10T01:18:56.838Z,1002.60
2019-02-10T01:19:56.826Z,1002.57
2019-02-10T01:20:56.821Z,1002.54
2019-02-10T01:21:56.805Z,1002.57
2019-02-10T01:22:56.811Z,1002.54
2019-02-10T01:23:56.789Z,1002.52
2019-02-10T01:24:56.774Z,1002.54
2019-02-10T01:25:56.764Z,1002.51
2019-02-10T01:26:56.751Z,1002.52
2019-02-10T01:27:56.743Z,1002.55
2019-02-10T01:28:56.739Z,1002.55
2019-02-10T01:29:56.721Z,1002.49
2019-02-10T01:30:56.714Z,1002.51
2019-02-10T01:31:56.728Z,1002.48
2019-02-10T01:32:56.702Z,1002.47
2019-02-10T01:33:56.682Z,1002.49
2019-02-10T01:34:56.675Z,1002.49
2019-02-10T01:35:56.659Z,1002.43
2019-02-10T01:36:56.645Z,1002.44
2019-02-10T01:37:56.647Z,1002.48
2019-02-10T01:38:56.630Z,1002.46
2019-02-10T01:39:56.616Z,1002.44
2019-02-10T01:40:56.609Z,1002.42
2019-02-10T01:41:56.592Z,1002.44
2019-02-10T01:42:56.612Z,1002.43
2019-02-10T01:43:56.571Z,1002.40
2019-02-10T01:44:56.559Z,1002.45
2019-02-10T01:45:56.557Z,1002.42
2019-02-10T01:46:56.563Z,1002.39
2019-02-10T01:47:56.533Z,1002.41
2019-02-10T01:48:56.526Z,1002.38
2019-02-10T01:49:56.507Z,1002.37
2019-02-10T01:50:56.501Z,1002.35
2019-02-10T01:51:56.486Z,1002.37
2019-02-10T01:52:56.493Z,1002.36
2019-02-10T01:53:56.470Z,1002.34
2019-02-10T01:54:56.458Z,1002.29
2019-02-10T01:55:56.443Z,1002.33
2019-02-10T01:56:56.432Z,1002.28
2019-02-10T01:57:56.425Z,1002.25
2019-02-10T01:58:56.418Z,1002.27
2019-02-10T01:59:56.411Z,1002.28
2019-02-10T02:00:56.389Z,1002.28
2019-02-10T02:01:56.378Z,1002.24
2019-02-10T02:02:56.368Z,1002.23
2019-02-10T02:03:56.394Z,1002.24
2019-02-10T02:04:56.346Z,1002.21
2019-02-10T02:05:56.337Z,1002.25
2019-02-10T02:06:57.951Z,1002.26
2019-02-10T02:07:56.319Z,1002.22
2019-02-10T02:08:56.319Z,1002.28
2019-02-10T02:09:56.298Z,1002.23
2019-02-10T02:10:56.288Z,1002.25
2019-02-10T02:11:56.277Z,1002.22
2019-02-10T02:12:56.260Z,1002.23
2019-02-10T02:13:56.258Z,1002.18
2019-02-10T02:14:56.247Z,1002.18
2019-02-10T02:15:56.236Z,1002.16
2019-02-10T02:16:56.223Z,1002.14
2019-02-10T02:17:56.215Z,1002.18
2019-02-10T02:18:56.202Z,1002.10
2019-02-10T02:19:56.226Z,1002.10
2019-02-10T02:20:56.174Z,1002.11
2019-02-10T02:21:56.170Z,1002.10
2019-02-10T02:22:56.154Z,1002.14
2019-02-10T02:23:56.149Z,1002.09
2019-02-10T02:24:56.132Z,1002.08
2019-02-10T02:25:56.128Z,1002.05
2019-02-10T02:26:56.126Z,1002.06
2019-02-10T02:27:56.104Z,1002.05
2019-02-10T02:28:56.089Z,1002.09
2019-02-10T02:29:56.077Z,1002.08
2019-02-10T02:30:56.088Z,1002.09
2019-02-10T02:31:56.081Z,1002.11
2019-02-10T02:32:56.046Z,1002.06
2019-02-10T02:33:56.038Z,1002.08
2019-02-10T02:34:56.030Z,1002.06
2019-02-10T02:35:56.042Z,1002.07
2019-02-10T02:36:56.007Z,1002.06
2019-02-10T02:37:55.998Z,1002.04
2019-02-10T02:38:55.982Z,1002.07
2019-02-10T02:39:55.979Z,1002.01
2019-02-10T02:40:55.961Z,1002.04
2019-02-10T02:41:55.957Z,1002.03
2019-02-10T02:42:55.938Z,1002.01
2019-02-10T02:43:55.926Z,1001.98
2019-02-10T02:44:55.921Z,1002.01
2019-02-10T02:45:55.910Z,1002.01
2019-02-10T02:46:55.916Z,1001.97
2019-02-10T02:47:55.889Z,1001.94
2019-02-10T02:48:55.872Z,1001.99
2019-02-10T02:49:55.862Z,1001.96
2019-02-10T02:50:55.859Z,1001.98
2019-02-10T02:51:55.861Z,1001.88
2019-02-10T02:52:55.832Z,1001.93
2019-02-10T02:53:55.826Z,1001.84
2019-02-10T02:54:55.813Z,1001.88
2019-02-10T02:55:55.800Z,1001.83
2019-02-10T02:56:55.796Z,1001.74
2019-02-10T02:57:55.823Z,1001.81
2019-02-10T02:58:55.767Z,1001.74
2019-02-10T02:59:55.759Z,1001.75
2019-02-10T03:00:55.753Z,1001.69
2019-02-10T03:01:55.735Z,1001.67
2019-02-10T03:02:55.733Z,1001.66
2019-02-10T03:03:55.726Z,1001.65
2019-02-10T03:04:55.706Z,1001.56
2019-02-10T03:05:55.696Z,1001.58
2019-02-10T03:06:55.683Z,1001.58
2019-02-10T03:07:55.674Z,1001.57
2019-02-10T03:08:55.665Z,1001.55
2019-02-10T03:09:55.653Z,1001.50
2019-02-10T03:10:55.640Z,1001.50
2019-02-10T03:11:55.629Z,1001.49
2019-02-10T03:12:55.615Z,1001.48
2019-02-10T03:13:55.636Z,1001.53
2019-02-10T03:14:55.596Z,1001.54
2019-02-10T03:15:55.584Z,1001.54
2019-02-10T03:16:55.576Z,1001.52
2019-02-10T03:17:55.561Z,1001.49
2019-02-10T03:18:55.556Z,1001.48
2019-02-10T03:19:55.549Z,1001.47
2019-02-10T03:20:55.537Z,1001.45
2019-02-10T03:21:55.518Z,1001.44
2019-02-10T03:22:55.512Z,1001.46
2019-02-10T03:23:55.500Z,1001.40
2019-02-10T03:24:55.498Z,1001.40
2019-02-10T03:25:55.479Z,1001.42
2019-02-10T03:26:55.467Z,1001.40
2019-02-10T03:27:55.457Z,1001.36
2019-02-10T03:28:55.447Z,1001.37
2019-02-10T03:29:55.462Z,1001.39
2019-02-10T03:30:55.427Z,1001.35
2019-02-10T03:31:55.423Z,1001.38
2019-02-10T03:32:55.400Z,1001.35
2019-02-10T03:33:55.387Z,1001.36
2019-02-10T03:34:55.385Z,1001.30
2019-02-10T03:35:55.400Z,1001.35
2019-02-10T03:36:55.355Z,1001.30
2019-02-10T03:37:55.347Z,1001.24
2019-02-10T03:38:55.333Z,1001.27
2019-02-10T03:39:55.322Z,1001.30
2019-02-10T03:40:55.314Z,1001.27
2019-02-10T03:41:55.315Z,1001.25
2019-02-10T03:42:55.290Z,1001.27
2019-02-10T03:43:55.287Z,1001.24
2019-02-10T03:44:55.268Z,1001.23
2019-02-10T03:45:55.271Z,1001.17
2019-02-10T03:46:55.252Z,1001.23
2019-02-10T03:47:55.242Z,1001.23
2019-02-10T03:48:55.233Z,1001.27
2019-02-10T03:49:55.221Z,1001.27
2019-02-10T03:50:55.244Z,1001.26
2019-02-10T03:51:55.194Z,1001.22
2019-02-10T03:52:55.187Z,1001.23
2019-02-10T03:53:55.175Z,1001.24
2019-02-10T03:54:55.168Z,1001.18
2019-02-10T03:55:55.154Z,1001.11
2019-02-10T03:56:55.157Z,1001.11
2019-02-10T03:57:55.128Z,1001.19
2019-02-10T03:58:55.118Z,1001.14
2019-02-10T03:59:55.117Z,1001.08
2019-02-10T04:00:55.095Z,1001.10
2019-02-10T04:01:55.103Z,1001.13
2019-02-10T04:02:55.075Z,1001.07
2019-02-10T04:03:55.073Z,1001.09
2019-02-10T04:04:55.052Z,1001.05
2019-02-10T04:05:55.059Z,1001.09
2019-02-10T04:06:55.032Z,1001.02
2019-02-10T04:07:55.035Z,1000.98
2019-02-10T04:08:55.008Z,1001.01
2019-02-10T04:09:55.004Z,1001.02
2019-02-10T04:10:54.990Z,1000.96
2019-02-10T04:11:54.985Z,1001.00
2019-02-10T04:12:54.982Z,1001.05
2019-02-10T04:13:54.956Z,1001.04
2019-02-10T04:14:54.951Z,1001.08
2019-02-10T04:15:54.939Z,1001.03
2019-02-10T04:16:54.921Z,1000.99
2019-02-10T04:17:54.911Z,1001.02
2019-02-10T04:18:54.949Z,1000.98
2019-02-10T04:19:54.891Z,1000.95
2019-02-10T04:20:54.881Z,1000.95
2019-02-10T04:21:54.875Z,1000.92
2019-02-10T04:22:54.859Z,1000.93
2019-02-10T04:23:54.853Z,1000.94
2019-02-10T04:24:54.845Z,1000.95
2019-02-10T04:25:54.857Z,1000.91
2019-02-10T04:26:54.821Z,1000.88
2019-02-10T04:27:54.809Z,1000.88
2019-02-10T04:28:54.798Z,1000.83
2019-02-10T04:29:54.788Z,1000.82
2019-02-10T04:30:54.777Z,1000.76
2019-02-10T04:31:54.777Z,1000.73
2019-02-10T04:32:54.752Z,1000.78
2019-02-10T04:34:02.728Z,1000.81
2019-02-10T04:34:54.764Z,1000.70
2019-02-10T04:35:54.720Z,1000.74
2019-02-10T04:36:54.706Z,1000.73
2019-02-10T04:37:54.697Z,1000.69
2019-02-10T04:38:54.690Z,1000.74
2019-02-10T04:39:54.676Z,1000.73
2019-02-10T04:40:54.678Z,1000.76
2019-02-10T04:41:54.653Z,1000.73
2019-02-10T04:42:54.661Z,1000.73
2019-02-10T04:43:54.637Z,1000.61
2019-02-10T04:44:54.627Z,1000.65
2019-02-10T04:45:54.625Z,1000.60
2019-02-10T04:46:54.608Z,1000.68
2019-02-10T04:47:54.594Z,1000.64
2019-02-10T04:48:54.585Z,1000.65
2019-02-10T04:49:54.579Z,1000.64
2019-02-10T04:50:54.569Z,1000.57
2019-02-10T04:51:54.552Z,1000.53
2019-02-10T04:52:54.542Z,1000.53
2019-02-10T04:53:54.535Z,1000.49
2019-02-10T04:54:54.522Z,1000.51
2019-02-10T04:55:54.521Z,1000.53
2019-02-10T04:56:54.494Z,1000.51
2019-02-10T04:57:54.490Z,1000.53
2019-02-10T04:58:54.487Z,1000.50
2019-02-10T04:59:54.471Z,1000.49
2019-02-10T05:00:54.450Z,1000.45
2019-02-10T05:01:54.440Z,1000.43
2019-02-10T05:02:54.439Z,1000.40
2019-02-10T05:03:54.444Z,1000.36
2019-02-10T05:04:54.411Z,1000.35
2019-02-10T05:05:54.404Z,1000.36
2019-02-10T05:06:54.388Z,1000.33
2019-02-10T05:07:54.870Z,1000.33
2019-02-10T05:08:54.369Z,1000.26
2019-02-10T05:09:54.376Z,1000.30
2019-02-10T05:10:54.351Z,1000.26
2019-02-10T05:11:54.344Z,1000.27
2019-02-10T05:12:54.325Z,1000.29
2019-02-10T05:13:54.310Z,1000.25
2019-02-10T05:14:54.304Z,1000.20
2019-02-10T05:15:54.295Z,1000.18
2019-02-10T05:16:54.321Z,1000.18
2019-02-10T05:17:54.267Z,1000.15
2019-02-10T05:18:54.265Z,1000.16
2019-02-10T05:19:54.246Z,1000.17
2019-02-10T05:20:54.241Z,1000.14
2019-02-10T05:21:54.224Z,1000.16
2019-02-10T05:22:54.237Z,1000.12
2019-02-10T05:24:02.786Z,1000.15
2019-02-10T05:24:55.191Z,1000.13
2019-02-10T05:25:54.183Z,1000.07
2019-02-10T05:26:54.183Z,1000.08
2019-02-10T05:27:54.165Z,1000.10
2019-02-10T05:28:54.166Z,1000.03
2019-02-10T05:29:54.147Z,1000.01
2019-02-10T05:30:54.139Z,1000.00
2019-02-10T05:31:54.122Z,1000.01
2019-02-10T05:32:54.109Z,999.96
2019-02-10T05:33:54.103Z,1000.04
2019-02-10T05:34:54.093Z,999.91
2019-02-10T05:35:54.096Z,999.97
2019-02-10T05:36:54.069Z,999.91
2019-02-10T05:37:54.058Z,999.88
2019-02-10T05:38:54.047Z,999.88
2019-02-10T05:39:54.040Z,999.82
2019-02-10T05:40:54.055Z,999.80
2019-02-10T05:41:54.015Z,999.72
2019-02-10T05:42:54.003Z,999.71
2019-02-10T05:43:53.995Z,999.70
2019-02-10T05:44:53.984Z,999.68
2019-02-10T05:45:53.969Z,999.72
2019-02-10T05:46:53.973Z,999.64
2019-02-10T05:47:53.950Z,999.63
2019-02-10T05:48:53.941Z,999.66
2019-02-10T05:49:53.926Z,999.61
2019-02-10T05:50:53.918Z,999.58
2019-02-10T05:51:53.918Z,999.57
2019-02-10T05:52:53.892Z,999.59
2019-02-10T05:53:53.886Z,999.50
2019-02-10T05:54:53.877Z,999.49
2019-02-10T05:55:53.859Z,999.49
2019-02-10T05:56:53.855Z,999.48
2019-02-10T05:57:53.855Z,999.43
2019-02-10T05:58:53.829Z,999.49
2019-02-10T05:59:53.822Z,999.48
2019-02-10T06:00:53.813Z,999.42
2019-02-10T06:01:53.796Z,999.37
2019-02-10T06:02:53.796Z,999.41
2019-02-10T06:03:53.782Z,999.38
2019-02-10T06:04:53.765Z,999.36
2019-02-10T06:05:53.754Z,999.33
2019-02-10T06:06:53.741Z,999.31
2019-02-10T06:07:53.751Z,999.25
2019-02-10T06:08:53.728Z,999.21
2019-02-10T06:09:53.745Z,999.16
2019-02-10T06:10:53.704Z,999.14
2019-02-10T06:11:53.694Z,999.19
2019-02-10T06:12:53.681Z,999.07
2019-02-10T06:13:53.684Z,999.12
2019-02-10T06:14:53.663Z,999.06
2019-02-10T06:15:53.658Z,999.03
2019-02-10T06:16:53.634Z,999.04
2019-02-10T06:17:53.629Z,999.06
2019-02-10T06:18:53.611Z,999.03
2019-02-10T06:19:53.619Z,999.02
2019-02-10T06:20:53.590Z,999.07
2019-02-10T06:21:53.581Z,999.02
2019-02-10T06:22:53.569Z,999.05
2019-02-10T06:23:53.556Z,999.03
2019-02-10T06:24:53.555Z,999.08
2019-02-10T06:25:53.538Z,999.00
2019-02-10T06:26:53.535Z,998.95
2019-02-10T06:27:53.520Z,998.92
2019-02-10T06:28:53.509Z,998.94
2019-02-10T06:29:53.503Z,998.87
2019-02-10T06:30:53.491Z,998.88
2019-02-10T06:31:53.473Z,998.95
2019-02-10T06:32:53.468Z,998.91
2019-02-10T06:33:53.459Z,998.89
2019-02-10T06:34:53.453Z,998.88
2019-02-10T06:35:53.462Z,998.83
2019-02-10T06:36:53.424Z,998.81
2019-02-10T06:37:53.410Z,998.77
2019-02-10T06:38:53.404Z,998.79
2019-02-10T06:39:53.390Z,998.75
2019-02-10T06:40:53.382Z,998.71
2019-02-10T06:41:53.377Z,998.75
2019-02-10T06:42:53.352Z,998.73
2019-02-10T06:43:53.350Z,998.74
2019-02-10T06:44:53.331Z,998.73
2019-02-10T06:45:53.325Z,998.72
2019-02-10T06:46:53.323Z,998.75
2019-02-10T06:47:53.304Z,998.74
2019-02-10T06:48:53.287Z,998.76
2019-02-10T06:49:53.290Z,998.72
2019-02-10T06:50:53.271Z,998.74
2019-02-10T06:51:53.265Z,998.74
2019-02-10T06:52:53.250Z,998.72
2019-02-10T06:53:53.238Z,998.75
2019-02-10T06:54:53.246Z,998.69
2019-02-10T06:55:53.250Z,998.68
2019-02-10T06:56:53.207Z,998.65
2019-02-10T06:57:53.195Z,998.66
2019-02-10T06:58:53.190Z,998.61
2019-02-10T06:59:53.171Z,998.60
2019-02-10T07:00:53.166Z,998.58
2019-02-10T07:01:53.168Z,998.55
2019-02-10T07:02:53.145Z,998.53
2019-02-10T07:03:53.134Z,998.54
2019-02-10T07:04:53.116Z,998.50
2019-02-10T07:05:53.113Z,998.55
2019-02-10T07:06:53.117Z,998.46
2019-02-10T07:07:53.097Z,998.42
2019-02-10T07:08:53.080Z,998.45
2019-02-10T07:09:53.061Z,998.39
2019-02-10T07:10:53.055Z,998.37
2019-02-10T07:11:53.054Z,998.35
2019-02-10T07:12:53.069Z,998.37
2019-02-10T07:13:53.030Z,998.30
2019-02-10T07:14:53.008Z,998.33
2019-02-10T07:15:53.002Z,998.30
2019-02-10T07:16:52.992Z,998.22
2019-02-10T07:17:52.989Z,998.20
2019-02-10T07:18:52.982Z,998.17
2019-02-10T07:19:52.961Z,998.17
2019-02-10T07:20:52.944Z,998.13
2019-02-10T07:21:52.935Z,998.11
2019-02-10T07:22:52.930Z,998.08
2019-02-10T07:23:52.930Z,998.09
2019-02-10T07:24:52.905Z,998.05
2019-02-10T07:25:52.901Z,998.08
2019-02-10T07:26:52.883Z,998.04
2019-02-10T07:27:52.875Z,998.04
2019-02-10T07:28:52.864Z,998.03
2019-02-10T07:29:52.855Z,998.02
2019-02-10T07:30:52.841Z,997.99
2019-02-10T07:31:52.831Z,998.01
2019-02-10T07:32:52.818Z,998.00
2019-02-10T07:33:52.810Z,997.97
2019-02-10T07:34:52.844Z,997.93
2019-02-10T07:35:52.785Z,997.92
2019-02-10T07:36:52.781Z,997.89
2019-02-10T07:37:52.766Z,997.83
2019-02-10T07:38:52.758Z,997.84
2019-02-10T07:39:52.746Z,997.82
2019-02-10T07:40:52.746Z,997.84
2019-02-10T07:41:52.724Z,997.78
2019-02-10T07:42:52.710Z,997.76
2019-02-10T07:43:52.698Z,997.67
2019-02-10T07:44:52.688Z,997.66
2019-02-10T07:45:52.717Z,997.54
2019-02-10T07:46:52.674Z,997.50
2019-02-10T07:47:52.665Z,997.48
2019-02-10T07:48:52.645Z,997.43
2019-02-10T07:49:52.637Z,997.44
2019-02-10T07:50:52.628Z,997.47
2019-02-10T07:51:52.630Z,997.41
2019-02-10T07:52:52.622Z,997.43
2019-02-10T07:53:52.597Z,997.38
2019-02-10T07:54:52.587Z,997.31
2019-02-10T07:55:52.601Z,997.31
2019-02-10T07:56:52.566Z,997.34
2019-02-10T07:57:52.555Z,997.33
2019-02-10T07:58:52.540Z,997.35
2019-02-10T07:59:52.533Z,997.37
2019-02-10T08:00:52.522Z,997.32
2019-02-10T08:01:52.523Z,997.36
2019-02-10T08:02:52.502Z,997.33
2019-02-10T08:03:52.488Z,997.28
2019-02-10T08:04:52.474Z,997.30
2019-02-10T08:05:52.470Z,997.28
2019-02-10T08:06:52.490Z,997.28
2019-02-10T08:07:52.446Z,997.27
2019-02-10T08:08:52.442Z,997.22
2019-02-10T08:09:52.421Z,997.18
2019-02-10T08:10:52.419Z,997.23
2019-02-10T08:11:52.405Z,997.19
2019-02-10T08:12:52.402Z,997.17
2019-02-10T08:13:52.401Z,997.13
2019-02-10T08:14:52.385Z,997.15
2019-02-10T08:15:52.361Z,997.08
2019-02-10T08:16:52.352Z,997.05
2019-02-10T08:17:53.569Z,997.04
2019-02-10T08:18:52.340Z,996.99
2019-02-10T08:19:52.313Z,997.05
2019-02-10T08:20:52.307Z,997.01
2019-02-10T08:21:52.299Z,996.97
2019-02-10T08:22:52.291Z,996.94
2019-02-10T08:23:52.289Z,996.94
2019-02-10T08:24:52.260Z,996.92
2019-02-10T08:25:52.255Z,996.92
2019-02-10T08:26:52.243Z,996.90
2019-02-10T08:27:52.229Z,996.84
2019-02-10T08:28:52.230Z,996.85
2019-02-10T08:29:52.208Z,996.86
2019-02-10T08:30:52.196Z,996.83
2019-02-10T08:31:52.187Z,996.87
2019-02-10T08:32:52.173Z,996.84
2019-02-10T08:33:52.176Z,996.78
2019-02-10T08:34:52.157Z,996.74
2019-02-10T08:35:52.150Z,996.72
2019-02-10T08:36:52.137Z,996.69
2019-02-10T08:37:52.121Z,996.61
2019-02-10T08:38:54.589Z,996.63
2019-02-10T08:39:52.113Z,996.57
2019-02-10T08:40:52.096Z,996.58
2019-02-10T08:41:52.081Z,996.54
2019-02-10T08:42:52.067Z,996.52
2019-02-10T08:43:52.060Z,996.48
2019-02-10T08:44:52.089Z,996.40
2019-02-10T08:45:52.034Z,996.33
2019-02-10T08:46:52.033Z,996.31
2019-02-10T08:47:52.014Z,996.26
2019-02-10T08:48:52.011Z,996.22
2019-02-10T08:49:52.000Z,996.19
2019-02-10T08:50:51.996Z,996.14
2019-02-10T08:51:51.977Z,996.09
2019-02-10T08:52:52.277Z,996.06
2019-02-10T08:53:51.954Z,996.02
2019-02-10T08:54:51.949Z,995.95
2019-02-10T08:55:51.939Z,995.96
2019-02-10T08:56:51.925Z,995.94
2019-02-10T08:57:51.913Z,995.87
2019-02-10T08:58:51.910Z,995.84
2019-02-10T08:59:51.900Z,995.73
2019-02-10T09:00:51.884Z,995.71
2019-02-10T09:01:51.869Z,995.74
2019-02-10T09:02:51.854Z,995.66
2019-02-10T09:03:51.843Z,995.61
2019-02-10T09:04:51.857Z,995.56
2019-02-10T09:05:51.853Z,995.57
2019-02-10T09:06:51.815Z,995.50
2019-02-10T09:07:51.869Z,995.43
2019-02-10T09:08:51.800Z,995.41
2019-02-10T09:09:51.786Z,995.41
2019-02-10T09:10:51.784Z,995.33
2019-02-10T09:11:51.789Z,995.41
2019-02-10T09:12:51.753Z,995.33
2019-02-10T09:13:51.736Z,995.21
2019-02-10T09:14:51.731Z,995.17
2019-02-10T09:15:51.733Z,995.17
2019-02-10T09:16:51.709Z,995.17
2019-02-10T09:17:51.698Z,995.07
2019-02-10T09:18:51.684Z,994.98
2019-02-10T09:19:51.673Z,994.97
2019-02-10T09:20:51.695Z,994.93
2019-02-10T09:21:51.676Z,994.88
2019-02-10T09:22:51.641Z,994.85
2019-02-10T09:23:51.639Z,994.84
2019-02-10T09:24:51.621Z,994.78
2019-02-10T09:25:51.619Z,994.74
2019-02-10T09:26:51.651Z,994.69
2019-02-10T09:27:51.630Z,994.69
2019-02-10T09:28:51.576Z,994.64
2019-02-10T09:29:51.571Z,994.54
2019-02-10T09:30:51.574Z,994.55
2019-02-10T09:31:51.548Z,994.58
2019-02-10T09:32:51.543Z,994.49
2019-02-10T09:33:51.536Z,994.47
2019-02-10T09:34:51.516Z,994.43
2019-02-10T09:35:51.506Z,994.41
2019-02-10T09:36:51.490Z,994.40
2019-02-10T09:37:51.486Z,994.30
2019-02-10T09:38:51.498Z,994.27
2019-02-10T09:39:51.458Z,994.30
2019-02-10T09:40:51.453Z,994.28
2019-02-10T09:41:51.447Z,994.24
2019-02-10T09:42:51.429Z,994.14
2019-02-10T09:43:51.416Z,994.00
2019-02-10T09:44:51.451Z,994.03
2019-02-10T09:45:51.394Z,993.90
2019-02-10T09:46:51.381Z,993.93
2019-02-10T09:47:51.371Z,993.89
2019-02-10T09:48:51.361Z,993.89
2019-02-10T09:49:51.354Z,993.82
2019-02-10T09:50:51.352Z,993.75
2019-02-10T09:51:51.333Z,993.70
2019-02-10T09:52:51.325Z,993.60
2019-02-10T09:53:51.311Z,993.71
2019-02-10T09:54:51.344Z,993.63
2019-02-10T09:55:51.291Z,993.64
2019-02-10T09:56:51.274Z,993.61
2019-02-10T09:57:51.263Z,993.60
2019-02-10T09:58:51.255Z,993.55
2019-02-10T09:59:51.242Z,993.54
2019-02-10T10:00:51.245Z,993.48
2019-02-10T10:01:51.225Z,993.45
2019-02-10T10:02:51.215Z,993.48
2019-02-10T10:03:51.204Z,993.48
2019-02-10T10:04:51.187Z,993.43
2019-02-10T10:05:51.189Z,993.38
2019-02-10T10:06:51.168Z,993.35
2019-02-10T10:07:51.158Z,993.35
2019-02-10T10:08:51.148Z,993.28
2019-02-10T10:09:51.133Z,993.23
2019-02-10T10:10:51.174Z,993.22
2019-02-10T10:11:51.123Z,993.16
2019-02-10T10:12:51.105Z,993.11
2019-02-10T10:13:51.095Z,993.01
2019-02-10T10:14:51.085Z,992.95
2019-02-10T10:15:51.076Z,993.01
2019-02-10T10:16:51.086Z,992.84
2019-02-10T10:17:51.047Z,992.83
2019-02-10T10:18:51.037Z,992.83
2019-02-10T10:19:51.031Z,992.83
2019-02-10T10:20:51.019Z,992.77
2019-02-10T10:21:51.011Z,992.81
2019-02-10T10:22:51.006Z,992.80
2019-02-10T10:23:50.987Z,992.77
2019-02-10T10:24:50.977Z,992.67
2019-02-10T10:25:50.960Z,992.62
2019-02-10T10:26:50.956Z,992.60
2019-02-10T10:27:50.986Z,992.52
2019-02-10T10:28:50.931Z,992.51
2019-02-10T10:29:50.918Z,992.49
2019-02-10T10:30:50.916Z,992.47
2019-02-10T10:31:50.902Z,992.38
2019-02-10T10:32:50.889Z,992.36
2019-02-10T10:33:50.881Z,992.37
2019-02-10T10:34:58.774Z,992.31
2019-02-10T10:35:50.852Z,992.26
2019-02-10T10:36:50.840Z,992.21
2019-02-10T10:37:50.839Z,992.20
2019-02-10T10:38:50.828Z,992.14
2019-02-10T10:39:50.813Z,992.05
2019-02-10T10:40:50.812Z,992.02
2019-02-10T10:41:50.794Z,992.01
2019-02-10T10:42:50.786Z,991.92
2019-02-10T10:43:50.797Z,991.85
2019-02-10T10:44:50.756Z,991.80
2019-02-10T10:45:50.750Z,991.78
2019-02-10T10:46:50.743Z,991.76
2019-02-10T10:47:50.730Z,991.71
2019-02-10T10:48:50.711Z,991.68
2019-02-10T10:49:50.726Z,991.62
2019-02-10T10:50:50.694Z,991.59
2019-02-10T10:51:50.686Z,991.58
2019-02-10T10:52:50.679Z,991.53
2019-02-10T10:53:50.666Z,991.44
2019-02-10T10:54:50.658Z,991.47
2019-02-10T10:55:50.638Z,991.37
2019-02-10T10:56:50.628Z,991.35
2019-02-10T10:57:50.630Z,991.32
2019-02-10T10:58:50.605Z,991.25
2019-02-10T10:59:50.736Z,991.15
2019-02-10T11:00:50.587Z,991.18
2019-02-10T11:01:50.579Z,991.16
2019-02-10T11:02:50.570Z,991.17
2019-02-10T11:03:50.551Z,991.10
2019-02-10T11:04:50.545Z,991.07
2019-02-10T11:05:50.548Z,991.14
2019-02-10T11:06:50.522Z,991.09
2019-02-10T11:07:50.510Z,991.13
2019-02-10T11:08:50.510Z,991.00
2019-02-10T11:09:50.492Z,991.05
2019-02-10T11:10:50.505Z,990.97
2019-02-10T11:11:51.940Z,990.92
2019-02-10T11:12:50.461Z,990.91
2019-02-10T11:13:51.361Z,990.87
2019-02-10T11:14:50.442Z,990.89
2019-02-10T11:15:50.427Z,990.85
2019-02-10T11:16:50.424Z,990.88
2019-02-10T11:17:50.407Z,990.84
2019-02-10T11:18:50.397Z,990.78
2019-02-10T11:19:50.384Z,990.66
2019-02-10T11:20:50.381Z,990.66
2019-02-10T11:21:50.368Z,990.54
2019-02-10T11:22:50.349Z,990.54
2019-02-10T11:23:50.346Z,990.50
2019-02-10T11:24:50.347Z,990.55
2019-02-10T11:25:50.320Z,990.48
2019-02-10T11:26:50.307Z,990.53
2019-02-10T11:27:50.305Z,990.47
2019-02-10T11:28:50.290Z,990.50
2019-02-10T11:29:50.273Z,990.45
2019-02-10T11:30:50.270Z,990.49
2019-02-10T11:31:50.255Z,990.42
2019-02-10T11:32:50.251Z,990.32
2019-02-10T11:33:50.238Z,990.38
2019-02-10T11:34:50.216Z,990.42
2019-02-10T11:35:50.208Z,990.40
2019-02-10T11:36:50.197Z,990.37
2019-02-10T11:37:50.200Z,990.33
2019-02-10T11:38:50.185Z,990.30
2019-02-10T11:39:50.170Z,990.16
2019-02-10T11:40:50.166Z,990.11
2019-02-10T11:41:50.143Z,990.09
2019-02-10T11:42:50.148Z,990.02
2019-02-10T11:43:50.142Z,990.00
2019-02-10T11:44:50.127Z,989.96
2019-02-10T11:45:50.105Z,989.95
2019-02-10T11:46:50.089Z,989.83
2019-02-10T11:47:50.085Z,989.83
2019-02-10T11:48:50.075Z,989.66
2019-02-10T11:49:50.098Z,989.68
2019-02-10T11:50:50.052Z,989.59
2019-02-10T11:51:50.036Z,989.59
2019-02-10T11:52:50.026Z,989.64
2019-02-10T11:53:50.021Z,989.67
2019-02-10T11:54:50.015Z,989.62
2019-02-10T11:55:50.049Z,989.65
2019-02-10T11:56:49.983Z,989.69
2019-02-10T11:57:49.980Z,989.64
2019-02-10T11:58:49.966Z,989.57
2019-02-10T11:59:49.952Z,989.55
2019-02-10T12:00:49.961Z,989.50
2019-02-10T12:01:49.934Z,989.55
2019-02-10T12:02:49.920Z,989.49
2019-02-10T12:03:49.915Z,989.47
2019-02-10T12:04:49.907Z,989.57
2019-02-10T12:05:49.899Z,989.47
2019-02-10T12:06:50.000Z,989.49
2019-02-10T12:07:49.871Z,989.51
2019-02-10T12:08:49.858Z,989.44
2019-02-10T12:09:51.643Z,989.39
2019-02-10T12:10:49.846Z,989.41
2019-02-10T12:11:49.839Z,989.44
2019-02-10T12:12:49.822Z,989.42
2019-02-10T12:13:49.807Z,989.33
2019-02-10T12:14:49.824Z,989.28
2019-02-10T12:15:49.780Z,989.27
2019-02-10T12:16:49.774Z,989.25
2019-02-10T12:17:49.765Z,989.20
2019-02-10T12:18:49.760Z,989.21